sensor_id;sensor_type;location;lat;lon;timestamp;P1;durP1;ratioP1;P2;durP2;ratioP2
14060;SDS011;7105;43.616;1.434;2023-04-01T00:02:07;16.47;;;3.80;;
14060;SDS011;7105;43.616;1.434;2023-04-01T00:04:32;24.27;;;4.83;;
14060;SDS011;7105;43.616;1.434;2023-04-01T00:06:58;21.37;;;4.60;;
14060;SDS011;7105;43.616;1.434;2023-04-01T00:09:25;20.70;;;4.13;;
14060;SDS011;7105;43.616;1.434;2023-04-01T00:11:51;18.70;;;4.03;;
14060;SDS011;7105;43.616;1.434;2023-04-01T00:14:16;17.37;;;3.37;;
14060;SDS011;7105;43.616;1.434;2023-04-01T00:16:43;22.73;;;5.40;;
14060;SDS011;7105;43.616;1.434;2023-04-01T00:19:08;19.80;;;4.33;;
14060;SDS011;7105;43.616;1.434;2023-04-01T00:21:34;20.77;;;3.80;;
14060;SDS011;7105;43.616;1.434;2023-04-01T00:24:01;21.00;;;4.03;;
14060;SDS011;7105;43.616;1.434;2023-04-01T00:26:27;21.80;;;4.37;;
14060;SDS011;7105;43.616;1.434;2023-04-01T00:28:53;20.27;;;4.47;;
14060;SDS011;7105;43.616;1.434;2023-04-01T00:31:19;23.10;;;4.00;;
14060;SDS011;7105;43.616;1.434;2023-04-01T00:33:45;20.77;;;4.50;;
14060;SDS011;7105;43.616;1.434;2023-04-01T00:36:11;20.17;;;4.33;;
14060;SDS011;7105;43.616;1.434;2023-04-01T00:38:39;22.40;;;4.60;;
14060;SDS011;7105;43.616;1.434;2023-04-01T00:41:06;21.00;;;4.10;;
14060;SDS011;7105;43.616;1.434;2023-04-01T00:43:32;21.97;;;4.60;;
14060;SDS011;7105;43.616;1.434;2023-04-01T00:45:59;22.90;;;4.90;;
14060;SDS011;7105;43.616;1.434;2023-04-01T00:48:30;26.07;;;4.40;;
14060;SDS011;7105;43.616;1.434;2023-04-01T00:53:34;16.00;;;3.63;;
14060;SDS011;7105;43.616;1.434;2023-04-01T00:56:15;18.90;;;4.00;;
14060;SDS011;7105;43.616;1.434;2023-04-01T00:58:47;17.43;;;3.30;;
14060;SDS011;7105;43.616;1.434;2023-04-01T01:01:16;24.10;;;4.63;;
14060;SDS011;7105;43.616;1.434;2023-04-01T01:03:42;23.80;;;4.47;;
14060;SDS011;7105;43.616;1.434;2023-04-01T01:11:54;27.20;;;4.53;;
14060;SDS011;7105;43.616;1.434;2023-04-01T01:16:58;23.43;;;3.50;;
14060;SDS011;7105;43.616;1.434;2023-04-01T01:28:15;22.43;;;4.63;;
14060;SDS011;7105;43.616;1.434;2023-04-01T01:35:50;18.13;;;3.57;;
14060;SDS011;7105;43.616;1.434;2023-04-01T01:38:21;22.03;;;4.10;;
14060;SDS011;7105;43.616;1.434;2023-04-01T01:40:49;20.90;;;4.33;;
14060;SDS011;7105;43.616;1.434;2023-04-01T01:43:20;21.33;;;5.10;;
14060;SDS011;7105;43.616;1.434;2023-04-01T01:45:53;21.30;;;4.03;;
14060;SDS011;7105;43.616;1.434;2023-04-01T01:48:22;24.53;;;4.17;;
14060;SDS011;7105;43.616;1.434;2023-04-01T01:50:49;20.33;;;4.27;;
14060;SDS011;7105;43.616;1.434;2023-04-01T01:53:16;17.00;;;4.20;;
14060;SDS011;7105;43.616;1.434;2023-04-01T01:55:43;22.60;;;3.77;;
14060;SDS011;7105;43.616;1.434;2023-04-01T01:58:23;23.83;;;4.20;;
14060;SDS011;7105;43.616;1.434;2023-04-01T02:00:51;21.23;;;4.40;;
14060;SDS011;7105;43.616;1.434;2023-04-01T02:03:26;17.23;;;4.17;;
14060;SDS011;7105;43.616;1.434;2023-04-01T02:05:56;17.53;;;3.80;;
14060;SDS011;7105;43.616;1.434;2023-04-01T02:08:26;23.90;;;4.40;;
14060;SDS011;7105;43.616;1.434;2023-04-01T02:11:05;16.87;;;3.33;;
14060;SDS011;7105;43.616;1.434;2023-04-01T02:13:40;15.80;;;3.30;;
14060;SDS011;7105;43.616;1.434;2023-04-01T02:16:14;19.07;;;3.80;;
14060;SDS011;7105;43.616;1.434;2023-04-01T02:18:45;25.53;;;3.87;;
14060;SDS011;7105;43.616;1.434;2023-04-01T02:21:15;24.03;;;5.20;;
14060;SDS011;7105;43.616;1.434;2023-04-01T02:23:43;20.10;;;3.77;;
14060;SDS011;7105;43.616;1.434;2023-04-01T02:26:11;16.43;;;3.77;;
14060;SDS011;7105;43.616;1.434;2023-04-01T02:28:38;21.97;;;4.27;;
14060;SDS011;7105;43.616;1.434;2023-04-01T02:31:07;28.00;;;4.50;;
14060;SDS011;7105;43.616;1.434;2023-04-01T02:33:35;22.53;;;4.17;;
14060;SDS011;7105;43.616;1.434;2023-04-01T02:36:03;26.47;;;5.77;;
14060;SDS011;7105;43.616;1.434;2023-04-01T02:38:29;29.10;;;4.07;;
14060;SDS011;7105;43.616;1.434;2023-04-01T02:40:57;19.07;;;3.93;;
14060;SDS011;7105;43.616;1.434;2023-04-01T02:43:24;23.13;;;4.37;;
14060;SDS011;7105;43.616;1.434;2023-04-01T02:45:50;14.43;;;3.83;;
14060;SDS011;7105;43.616;1.434;2023-04-01T02:48:15;22.03;;;4.30;;
14060;SDS011;7105;43.616;1.434;2023-04-01T02:50:41;24.20;;;4.73;;
14060;SDS011;7105;43.616;1.434;2023-04-01T02:53:07;27.67;;;4.43;;
14060;SDS011;7105;43.616;1.434;2023-04-01T02:55:33;21.50;;;4.00;;
14060;SDS011;7105;43.616;1.434;2023-04-01T02:57:59;20.47;;;4.20;;
14060;SDS011;7105;43.616;1.434;2023-04-01T03:00:25;25.97;;;4.63;;
14060;SDS011;7105;43.616;1.434;2023-04-01T03:02:51;22.97;;;4.87;;
14060;SDS011;7105;43.616;1.434;2023-04-01T03:05:17;18.63;;;3.67;;
14060;SDS011;7105;43.616;1.434;2023-04-01T03:07:43;15.60;;;3.63;;
14060;SDS011;7105;43.616;1.434;2023-04-01T03:10:09;24.23;;;4.40;;
14060;SDS011;7105;43.616;1.434;2023-04-01T03:12:35;22.67;;;3.87;;
14060;SDS011;7105;43.616;1.434;2023-04-01T03:15:01;21.80;;;3.77;;
14060;SDS011;7105;43.616;1.434;2023-04-01T03:17:27;20.40;;;5.13;;
14060;SDS011;7105;43.616;1.434;2023-04-01T03:19:52;22.50;;;4.60;;
14060;SDS011;7105;43.616;1.434;2023-04-01T03:22:18;22.83;;;4.43;;
14060;SDS011;7105;43.616;1.434;2023-04-01T03:24:46;28.77;;;4.83;;
14060;SDS011;7105;43.616;1.434;2023-04-01T03:27:15;20.40;;;3.53;;
14060;SDS011;7105;43.616;1.434;2023-04-01T03:29:41;23.33;;;4.67;;
14060;SDS011;7105;43.616;1.434;2023-04-01T03:32:06;20.70;;;4.17;;
14060;SDS011;7105;43.616;1.434;2023-04-01T03:34:32;24.97;;;5.33;;
14060;SDS011;7105;43.616;1.434;2023-04-01T03:36:58;23.53;;;3.90;;
14060;SDS011;7105;43.616;1.434;2023-04-01T03:39:24;17.10;;;3.40;;
14060;SDS011;7105;43.616;1.434;2023-04-01T03:41:50;26.03;;;4.43;;
14060;SDS011;7105;43.616;1.434;2023-04-01T03:44:16;19.00;;;4.30;;
14060;SDS011;7105;43.616;1.434;2023-04-01T03:46:42;18.53;;;4.40;;
14060;SDS011;7105;43.616;1.434;2023-04-01T03:49:10;22.57;;;4.10;;
14060;SDS011;7105;43.616;1.434;2023-04-01T03:51:43;22.73;;;3.87;;
14060;SDS011;7105;43.616;1.434;2023-04-01T03:54:09;22.17;;;4.17;;
14060;SDS011;7105;43.616;1.434;2023-04-01T03:56:35;23.67;;;4.63;;
14060;SDS011;7105;43.616;1.434;2023-04-01T03:59:02;19.27;;;4.33;;
14060;SDS011;7105;43.616;1.434;2023-04-01T04:01:29;22.17;;;3.97;;
14060;SDS011;7105;43.616;1.434;2023-04-01T04:03:56;20.03;;;4.23;;
14060;SDS011;7105;43.616;1.434;2023-04-01T04:06:22;28.77;;;4.40;;
14060;SDS011;7105;43.616;1.434;2023-04-01T04:08:49;23.57;;;4.60;;
14060;SDS011;7105;43.616;1.434;2023-04-01T04:11:15;22.83;;;4.10;;
14060;SDS011;7105;43.616;1.434;2023-04-01T04:13:41;20.50;;;4.30;;
14060;SDS011;7105;43.616;1.434;2023-04-01T04:16:08;24.10;;;5.03;;
14060;SDS011;7105;43.616;1.434;2023-04-01T04:18:35;21.13;;;6.00;;
14060;SDS011;7105;43.616;1.434;2023-04-01T04:21:01;21.57;;;4.27;;
14060;SDS011;7105;43.616;1.434;2023-04-01T04:23:28;22.43;;;4.43;;
14060;SDS011;7105;43.616;1.434;2023-04-01T04:25:55;20.13;;;4.77;;
14060;SDS011;7105;43.616;1.434;2023-04-01T04:28:26;25.10;;;4.77;;
14060;SDS011;7105;43.616;1.434;2023-04-01T04:30:53;19.63;;;3.57;;
14060;SDS011;7105;43.616;1.434;2023-04-01T04:33:20;12.60;;;3.27;;
14060;SDS011;7105;43.616;1.434;2023-04-01T04:35:46;15.97;;;3.27;;
14060;SDS011;7105;43.616;1.434;2023-04-01T04:38:12;21.53;;;4.30;;
14060;SDS011;7105;43.616;1.434;2023-04-01T04:40:38;25.83;;;4.40;;
14060;SDS011;7105;43.616;1.434;2023-04-01T04:43:05;22.23;;;4.53;;
14060;SDS011;7105;43.616;1.434;2023-04-01T04:45:31;17.70;;;3.73;;
14060;SDS011;7105;43.616;1.434;2023-04-01T04:48:00;20.40;;;4.03;;
14060;SDS011;7105;43.616;1.434;2023-04-01T04:50:25;21.57;;;3.67;;
14060;SDS011;7105;43.616;1.434;2023-04-01T04:52:51;18.93;;;4.00;;
14060;SDS011;7105;43.616;1.434;2023-04-01T04:55:17;17.50;;;3.70;;
14060;SDS011;7105;43.616;1.434;2023-04-01T04:57:43;18.17;;;3.40;;
14060;SDS011;7105;43.616;1.434;2023-04-01T05:00:09;20.07;;;4.03;;
14060;SDS011;7105;43.616;1.434;2023-04-01T05:02:36;27.00;;;4.60;;
14060;SDS011;7105;43.616;1.434;2023-04-01T05:05:02;21.90;;;4.37;;
14060;SDS011;7105;43.616;1.434;2023-04-01T05:07:27;18.97;;;3.60;;
14060;SDS011;7105;43.616;1.434;2023-04-01T05:09:53;24.73;;;3.77;;
14060;SDS011;7105;43.616;1.434;2023-04-01T05:12:19;20.57;;;3.93;;
14060;SDS011;7105;43.616;1.434;2023-04-01T05:14:45;17.20;;;3.57;;
14060;SDS011;7105;43.616;1.434;2023-04-01T05:17:11;20.20;;;4.10;;
14060;SDS011;7105;43.616;1.434;2023-04-01T05:19:37;18.77;;;3.17;;
14060;SDS011;7105;43.616;1.434;2023-04-01T05:22:04;27.47;;;4.00;;
14060;SDS011;7105;43.616;1.434;2023-04-01T05:24:30;18.33;;;3.90;;
14060;SDS011;7105;43.616;1.434;2023-04-01T05:26:56;21.90;;;3.90;;
14060;SDS011;7105;43.616;1.434;2023-04-01T05:29:23;21.53;;;4.07;;
14060;SDS011;7105;43.616;1.434;2023-04-01T05:31:49;25.60;;;3.90;;
14060;SDS011;7105;43.616;1.434;2023-04-01T05:34:15;25.10;;;4.60;;
14060;SDS011;7105;43.616;1.434;2023-04-01T05:36:41;19.13;;;4.13;;
14060;SDS011;7105;43.616;1.434;2023-04-01T05:39:07;18.90;;;4.17;;
14060;SDS011;7105;43.616;1.434;2023-04-01T05:41:36;16.63;;;4.07;;
14060;SDS011;7105;43.616;1.434;2023-04-01T05:44:02;25.60;;;4.27;;
14060;SDS011;7105;43.616;1.434;2023-04-01T05:46:28;20.93;;;4.83;;
14060;SDS011;7105;43.616;1.434;2023-04-01T05:48:54;20.33;;;4.10;;
14060;SDS011;7105;43.616;1.434;2023-04-01T05:51:20;19.13;;;3.73;;
14060;SDS011;7105;43.616;1.434;2023-04-01T05:53:46;22.73;;;4.43;;
14060;SDS011;7105;43.616;1.434;2023-04-01T05:56:11;18.63;;;3.67;;
14060;SDS011;7105;43.616;1.434;2023-04-01T05:58:38;21.57;;;3.77;;
14060;SDS011;7105;43.616;1.434;2023-04-01T06:01:05;25.13;;;4.30;;
14060;SDS011;7105;43.616;1.434;2023-04-01T06:03:32;23.73;;;4.23;;
14060;SDS011;7105;43.616;1.434;2023-04-01T06:05:58;23.33;;;4.07;;
14060;SDS011;7105;43.616;1.434;2023-04-01T06:08:26;21.30;;;3.87;;
14060;SDS011;7105;43.616;1.434;2023-04-01T06:27:48;18.77;;;3.37;;
14060;SDS011;7105;43.616;1.434;2023-04-01T06:35:43;20.77;;;3.60;;
14060;SDS011;7105;43.616;1.434;2023-04-01T06:38:27;16.70;;;4.00;;
14060;SDS011;7105;43.616;1.434;2023-04-01T06:51:52;18.50;;;3.53;;
14060;SDS011;7105;43.616;1.434;2023-04-01T06:54:37;17.47;;;3.30;;
14060;SDS011;7105;43.616;1.434;2023-04-01T06:57:16;19.57;;;4.40;;
14060;SDS011;7105;43.616;1.434;2023-04-01T06:59:58;26.73;;;5.00;;
14060;SDS011;7105;43.616;1.434;2023-04-01T07:05:02;17.23;;;4.33;;
14060;SDS011;7105;43.616;1.434;2023-04-01T07:07:38;17.10;;;3.87;;
14060;SDS011;7105;43.616;1.434;2023-04-01T07:10:20;18.83;;;3.90;;
14060;SDS011;7105;43.616;1.434;2023-04-01T07:12:56;16.00;;;3.17;;
14060;SDS011;7105;43.616;1.434;2023-04-01T07:15:34;19.33;;;3.47;;
14060;SDS011;7105;43.616;1.434;2023-04-01T07:18:05;20.33;;;3.97;;
14060;SDS011;7105;43.616;1.434;2023-04-01T07:20:41;27.10;;;3.70;;
14060;SDS011;7105;43.616;1.434;2023-04-01T07:23:10;24.53;;;4.67;;
14060;SDS011;7105;43.616;1.434;2023-04-01T07:25:51;17.83;;;4.30;;
14060;SDS011;7105;43.616;1.434;2023-04-01T07:28:19;22.10;;;4.03;;
14060;SDS011;7105;43.616;1.434;2023-04-01T07:41:51;13.73;;;4.27;;
14060;SDS011;7105;43.616;1.434;2023-04-01T07:58:14;18.30;;;4.10;;
14060;SDS011;7105;43.616;1.434;2023-04-01T08:00:50;18.20;;;4.10;;
14060;SDS011;7105;43.616;1.434;2023-04-01T08:22:41;14.45;;;3.30;;
14060;SDS011;7105;43.616;1.434;2023-04-01T08:25:13;14.75;;;3.42;;
14060;SDS011;7105;43.616;1.434;2023-04-01T08:27:45;15.57;;;3.88;;
14060;SDS011;7105;43.616;1.434;2023-04-01T08:33:29;16.38;;;3.80;;
14060;SDS011;7105;43.616;1.434;2023-04-01T08:46:42;18.60;;;3.55;;
14060;SDS011;7105;43.616;1.434;2023-04-01T08:49:34;18.58;;;3.20;;
14060;SDS011;7105;43.616;1.434;2023-04-01T09:01:03;11.93;;;3.17;;
14060;SDS011;7105;43.616;1.434;2023-04-01T09:03:54;12.83;;;2.40;;
14060;SDS011;7105;43.616;1.434;2023-04-01T09:06:45;9.30;;;2.40;;
14060;SDS011;7105;43.616;1.434;2023-04-01T09:18:24;8.47;;;1.90;;
14060;SDS011;7105;43.616;1.434;2023-04-01T09:24:30;4.20;;;1.40;;
14060;SDS011;7105;43.616;1.434;2023-04-01T09:30:18;5.03;;;1.40;;
14060;SDS011;7105;43.616;1.434;2023-04-01T09:36:04;6.93;;;1.40;;
14060;SDS011;7105;43.616;1.434;2023-04-01T09:38:58;5.80;;;1.53;;
14060;SDS011;7105;43.616;1.434;2023-04-01T09:41:40;6.20;;;1.53;;
14060;SDS011;7105;43.616;1.434;2023-04-01T09:44:47;6.93;;;1.70;;
14060;SDS011;7105;43.616;1.434;2023-04-01T09:47:27;5.40;;;1.40;;
14060;SDS011;7105;43.616;1.434;2023-04-01T09:49:59;6.37;;;1.47;;
14060;SDS011;7105;43.616;1.434;2023-04-01T10:20:39;5.97;;;1.53;;
14060;SDS011;7105;43.616;1.434;2023-04-01T10:23:19;6.20;;;1.47;;
14060;SDS011;7105;43.616;1.434;2023-04-01T10:40:31;5.30;;;1.63;;
14060;SDS011;7105;43.616;1.434;2023-04-01T10:45:58;9.70;;;2.27;;
14060;SDS011;7105;43.616;1.434;2023-04-01T10:54:58;9.23;;;2.17;;
14060;SDS011;7105;43.616;1.434;2023-04-01T11:49:58;4.93;;;1.80;;
14060;SDS011;7105;43.616;1.434;2023-04-01T12:35:59;3.17;;;0.97;;
14060;SDS011;7105;43.616;1.434;2023-04-01T12:44:15;2.50;;;1.03;;
14060;SDS011;7105;43.616;1.434;2023-04-01T12:55:45;2.97;;;1.20;;
14060;SDS011;7105;43.616;1.434;2023-04-01T13:01:03;4.53;;;1.13;;
14060;SDS011;7105;43.616;1.434;2023-04-01T13:04:21;2.67;;;0.93;;
14060;SDS011;7105;43.616;1.434;2023-04-01T13:15:37;4.23;;;1.10;;
14060;SDS011;7105;43.616;1.434;2023-04-01T13:23:46;5.47;;;2.80;;
14060;SDS011;7105;43.616;1.434;2023-04-01T13:26:17;4.97;;;2.57;;
14060;SDS011;7105;43.616;1.434;2023-04-01T13:28:53;9.20;;;4.73;;
14060;SDS011;7105;43.616;1.434;2023-04-01T13:32:41;8.47;;;4.20;;
14060;SDS011;7105;43.616;1.434;2023-04-01T13:42:47;6.00;;;3.37;;
14060;SDS011;7105;43.616;1.434;2023-04-01T13:45:19;9.70;;;4.70;;
14060;SDS011;7105;43.616;1.434;2023-04-01T13:58:55;10.17;;;3.87;;
14060;SDS011;7105;43.616;1.434;2023-04-01T14:09:39;7.23;;;1.77;;
14060;SDS011;7105;43.616;1.434;2023-04-01T14:20:22;5.87;;;3.00;;
14060;SDS011;7105;43.616;1.434;2023-04-01T14:23:24;7.67;;;2.93;;
14060;SDS011;7105;43.616;1.434;2023-04-01T14:36:49;10.23;;;4.83;;
14060;SDS011;7105;43.616;1.434;2023-04-01T14:47:46;5.67;;;2.33;;
14060;SDS011;7105;43.616;1.434;2023-04-01T14:50:26;7.77;;;2.27;;
14060;SDS011;7105;43.616;1.434;2023-04-01T14:53:11;9.53;;;4.30;;
14060;SDS011;7105;43.616;1.434;2023-04-01T14:55:53;5.90;;;2.30;;
14060;SDS011;7105;43.616;1.434;2023-04-01T14:58:46;2.47;;;0.97;;
14060;SDS011;7105;43.616;1.434;2023-04-01T15:04:28;6.10;;;1.77;;
14060;SDS011;7105;43.616;1.434;2023-04-01T15:13:23;5.03;;;1.50;;
14060;SDS011;7105;43.616;1.434;2023-04-01T15:24:25;10.63;;;5.63;;
14060;SDS011;7105;43.616;1.434;2023-04-01T15:27:09;4.50;;;1.80;;
14060;SDS011;7105;43.616;1.434;2023-04-01T15:35:41;5.70;;;2.23;;
14060;SDS011;7105;43.616;1.434;2023-04-01T15:38:18;6.07;;;2.03;;
14060;SDS011;7105;43.616;1.434;2023-04-01T15:43:43;3.17;;;1.70;;
14060;SDS011;7105;43.616;1.434;2023-04-01T15:59:32;7.90;;;3.97;;
14060;SDS011;7105;43.616;1.434;2023-04-01T16:12:40;4.53;;;1.80;;
14060;SDS011;7105;43.616;1.434;2023-04-01T16:15:29;3.63;;;1.30;;
14060;SDS011;7105;43.616;1.434;2023-04-01T16:23:43;5.07;;;1.40;;
14060;SDS011;7105;43.616;1.434;2023-04-01T16:26:13;7.03;;;1.47;;
14060;SDS011;7105;43.616;1.434;2023-04-01T16:34:10;3.97;;;1.13;;
14060;SDS011;7105;43.616;1.434;2023-04-01T16:36:54;18.13;;;8.03;;
14060;SDS011;7105;43.616;1.434;2023-04-01T16:48:01;10.70;;;4.83;;
14060;SDS011;7105;43.616;1.434;2023-04-01T16:56:14;5.17;;;3.97;;
14060;SDS011;7105;43.616;1.434;2023-04-01T17:01:53;4.33;;;1.90;;
14060;SDS011;7105;43.616;1.434;2023-04-01T17:09:55;6.00;;;2.33;;
14060;SDS011;7105;43.616;1.434;2023-04-01T17:12:56;7.60;;;3.10;;
14060;SDS011;7105;43.616;1.434;2023-04-01T17:27:22;7.63;;;2.60;;
14060;SDS011;7105;43.616;1.434;2023-04-01T17:38:05;7.37;;;2.10;;
14060;SDS011;7105;43.616;1.434;2023-04-01T17:49:41;4.03;;;1.83;;
14060;SDS011;7105;43.616;1.434;2023-04-01T17:52:39;4.13;;;1.50;;
14060;SDS011;7105;43.616;1.434;2023-04-01T17:55:36;2.73;;;0.93;;
14060;SDS011;7105;43.616;1.434;2023-04-01T18:03:46;3.83;;;1.60;;
14060;SDS011;7105;43.616;1.434;2023-04-01T18:08:58;18.23;;;11.07;;
14060;SDS011;7105;43.616;1.434;2023-04-01T18:11:33;6.87;;;4.37;;
14060;SDS011;7105;43.616;1.434;2023-04-01T18:14:37;24.07;;;11.80;;
14060;SDS011;7105;43.616;1.434;2023-04-01T18:25:36;10.97;;;5.33;;
14060;SDS011;7105;43.616;1.434;2023-04-01T18:30:31;7.70;;;2.83;;
14060;SDS011;7105;43.616;1.434;2023-04-01T18:33:02;7.53;;;3.70;;
14060;SDS011;7105;43.616;1.434;2023-04-01T18:35:54;6.37;;;2.50;;
14060;SDS011;7105;43.616;1.434;2023-04-01T18:38:40;4.70;;;1.90;;
14060;SDS011;7105;43.616;1.434;2023-04-01T18:41:22;10.70;;;3.10;;
14060;SDS011;7105;43.616;1.434;2023-04-01T18:53:17;5.00;;;1.70;;
14060;SDS011;7105;43.616;1.434;2023-04-01T18:55:52;9.70;;;2.57;;
14060;SDS011;7105;43.616;1.434;2023-04-01T18:58:35;8.57;;;2.70;;
14060;SDS011;7105;43.616;1.434;2023-04-01T19:01:16;8.97;;;3.23;;
14060;SDS011;7105;43.616;1.434;2023-04-01T19:03:45;7.10;;;3.20;;
14060;SDS011;7105;43.616;1.434;2023-04-01T19:06:50;8.73;;;3.07;;
14060;SDS011;7105;43.616;1.434;2023-04-01T19:15:09;10.13;;;6.00;;
14060;SDS011;7105;43.616;1.434;2023-04-01T19:20:56;6.00;;;1.73;;
14060;SDS011;7105;43.616;1.434;2023-04-01T19:26:11;6.07;;;2.10;;
14060;SDS011;7105;43.616;1.434;2023-04-01T19:42:49;7.10;;;2.80;;
14060;SDS011;7105;43.616;1.434;2023-04-01T19:45:39;6.30;;;3.27;;
14060;SDS011;7105;43.616;1.434;2023-04-01T19:48:41;5.43;;;2.60;;
14060;SDS011;7105;43.616;1.434;2023-04-01T19:59:27;4.07;;;1.60;;
14060;SDS011;7105;43.616;1.434;2023-04-01T20:04:43;5.60;;;1.60;;
14060;SDS011;7105;43.616;1.434;2023-04-01T20:07:33;8.27;;;3.77;;
14060;SDS011;7105;43.616;1.434;2023-04-01T20:10:16;8.13;;;2.33;;
14060;SDS011;7105;43.616;1.434;2023-04-01T20:15:34;5.50;;;1.73;;
14060;SDS011;7105;43.616;1.434;2023-04-01T20:18:02;2.13;;;1.30;;
14060;SDS011;7105;43.616;1.434;2023-04-01T20:20:37;7.07;;;1.73;;
14060;SDS011;7105;43.616;1.434;2023-04-01T20:26:08;4.70;;;1.40;;
14060;SDS011;7105;43.616;1.434;2023-04-01T20:28:43;6.20;;;1.67;;
14060;SDS011;7105;43.616;1.434;2023-04-01T20:31:31;8.67;;;1.97;;
14060;SDS011;7105;43.616;1.434;2023-04-01T20:48:21;8.10;;;1.63;;
14060;SDS011;7105;43.616;1.434;2023-04-01T20:51:05;7.60;;;1.83;;
14060;SDS011;7105;43.616;1.434;2023-04-01T21:04:30;7.33;;;2.00;;
14060;SDS011;7105;43.616;1.434;2023-04-01T21:09:55;8.77;;;2.10;;
14060;SDS011;7105;43.616;1.434;2023-04-01T21:15:32;7.87;;;2.13;;
14060;SDS011;7105;43.616;1.434;2023-04-01T21:34:55;5.57;;;1.97;;
14060;SDS011;7105;43.616;1.434;2023-04-01T21:43:03;7.73;;;1.77;;
14060;SDS011;7105;43.616;1.434;2023-04-01T21:51:30;5.60;;;1.83;;
14060;SDS011;7105;43.616;1.434;2023-04-01T22:07:40;6.23;;;1.87;;
14060;SDS011;7105;43.616;1.434;2023-04-01T22:13:18;8.37;;;1.93;;
14060;SDS011;7105;43.616;1.434;2023-04-01T22:15:59;5.50;;;1.50;;
14060;SDS011;7105;43.616;1.434;2023-04-01T22:18:52;6.80;;;1.90;;
14060;SDS011;7105;43.616;1.434;2023-04-01T22:21:54;5.10;;;1.40;;
14060;SDS011;7105;43.616;1.434;2023-04-01T22:30:22;6.83;;;1.60;;
14060;SDS011;7105;43.616;1.434;2023-04-01T22:32:52;5.57;;;1.87;;
14060;SDS011;7105;43.616;1.434;2023-04-01T22:38:29;8.17;;;1.60;;
14060;SDS011;7105;43.616;1.434;2023-04-01T22:41:19;4.97;;;1.50;;
14060;SDS011;7105;43.616;1.434;2023-04-01T22:44:04;6.60;;;1.53;;
14060;SDS011;7105;43.616;1.434;2023-04-01T22:49:29;7.87;;;1.83;;
14060;SDS011;7105;43.616;1.434;2023-04-01T22:52:11;7.30;;;1.60;;
14060;SDS011;7105;43.616;1.434;2023-04-01T22:54:51;6.83;;;1.60;;
14060;SDS011;7105;43.616;1.434;2023-04-01T22:57:43;6.27;;;1.87;;
14060;SDS011;7105;43.616;1.434;2023-04-01T23:00:27;6.90;;;1.90;;
14060;SDS011;7105;43.616;1.434;2023-04-01T23:03:15;9.30;;;1.93;;
14060;SDS011;7105;43.616;1.434;2023-04-01T23:05:53;4.20;;;1.30;;
14060;SDS011;7105;43.616;1.434;2023-04-01T23:31:03;6.73;;;1.70;;
14060;SDS011;7105;43.616;1.434;2023-04-01T23:33:29;8.73;;;1.83;;
14060;SDS011;7105;43.616;1.434;2023-04-01T23:38:36;8.20;;;1.70;;
14060;SDS011;7105;43.616;1.434;2023-04-01T23:41:04;12.30;;;1.93;;
14060;SDS011;7105;43.616;1.434;2023-04-01T23:43:32;5.60;;;1.70;;
14060;SDS011;7105;43.616;1.434;2023-04-01T23:46:03;8.13;;;1.80;;
14060;SDS011;7105;43.616;1.434;2023-04-01T23:48:39;10.73;;;1.90;;
14060;SDS011;7105;43.616;1.434;2023-04-01T23:51:26;7.30;;;1.63;;
14060;SDS011;7105;43.616;1.434;2023-04-01T23:54:00;5.77;;;1.60;;
14060;SDS011;7105;43.616;1.434;2023-04-01T23:56:46;6.63;;;2.03;;
14060;SDS011;7105;43.616;1.434;2023-04-01T23:59:22;12.80;;;1.73;;
